SWA389 KMCO-KIND
Flight info
| Callsign | SWA389 |
|---|---|
| Flight time | N/A |
| Altitude | 38000 |
| Route | RDSOX1 JFRYS BRUTS Q118 THRSR Q79 SWAPP HAGAL GIIBS4 |
| Aircraft | B737/M-SADE2E3GIJ4RWZ/LB1D1 |
Departure
| Time | 2026-04-24 23:59 |
|---|---|
| Airport | Orlando International Airport (KMCO) |
Arrival
| Time | N/A |
|---|---|
| Airport | Indianapolis International Airport (KIND) |
| Time | Latitude | Longitude | Altitude | Speed | Heading |
|---|---|---|---|---|---|
| 2026-04-24 23:21 | 28.43375 | -81.30097 | 94 ft | 0 kts | 45° |
| 2026-04-24 23:52 | 28.43361 | -81.30113 | 94 ft | 4 kts | 45° |
| 2026-04-24 23:52 | 28.43343 | -81.30133 | 95 ft | 3 kts | 45° |
| 2026-04-24 23:52 | 28.43334 | -81.30143 | 95 ft | 2 kts | 45° |
| 2026-04-24 23:53 | 28.43326 | -81.30152 | 94 ft | 1 kts | 45° |
| 2026-04-24 23:53 | 28.43326 | -81.30153 | 93 ft | 0 kts | 45° |
| 2026-04-24 23:55 | 28.43328 | -81.30150 | 94 ft | 2 kts | 52° |
| 2026-04-24 23:55 | 28.43306 | -81.30105 | 96 ft | 9 kts | 135° |
| 2026-04-24 23:55 | 28.43279 | -81.30042 | 93 ft | 9 kts | 95° |
| 2026-04-24 23:55 | 28.43307 | -81.29933 | 96 ft | 17 kts | 68° |
| 2026-04-24 23:56 | 28.43356 | -81.29813 | 94 ft | 17 kts | 36° |
| 2026-04-24 23:56 | 28.43475 | -81.29805 | 94 ft | 18 kts | 360° |
| 2026-04-24 23:56 | 28.43550 | -81.29755 | 97 ft | 6 kts | 91° |
| 2026-04-24 23:56 | 28.43550 | -81.29752 | 94 ft | 0 kts | 91° |
| 2026-04-24 23:57 | 28.43550 | -81.29735 | 94 ft | 6 kts | 91° |
| 2026-04-24 23:57 | 28.43549 | -81.29697 | 94 ft | 0 kts | 89° |
| 2026-04-24 23:57 | 28.43550 | -81.29686 | 95 ft | 8 kts | 89° |
| 2026-04-24 23:58 | 28.43536 | -81.29594 | 96 ft | 11 kts | 139° |
| 2026-04-24 23:58 | 28.43505 | -81.29587 | 96 ft | 0 kts | 179° |
| 2026-04-24 23:58 | 28.43472 | -81.29587 | 97 ft | 24 kts | 180° |
| 2026-04-24 23:59 | 28.43041 | -81.29582 | 98 ft | 98 kts | 179° |
| 2026-04-24 23:59 | 28.42144 | -81.29575 | 103 ft | 155 kts | 179° |
| 2026-04-24 23:59 | 28.41011 | -81.29566 | 601 ft | 167 kts | 175° |
| 2026-04-24 23:59 | 28.39829 | -81.29553 | 1342 ft | 171 kts | 178° |
| 2026-04-25 00:00 | 28.38633 | -81.30006 | 1803 ft | 203 kts | 214° |
| 2026-04-25 00:00 | 28.37649 | -81.31312 | 2135 ft | 230 kts | 231° |
| 2026-04-25 00:00 | 28.36629 | -81.32876 | 2368 ft | 261 kts | 231° |
| 2026-04-25 00:00 | 28.35517 | -81.34538 | 3098 ft | 268 kts | 230° |
| 2026-04-25 00:01 | 28.34514 | -81.36315 | 4013 ft | 270 kts | 247° |
| 2026-04-25 00:01 | 28.34290 | -81.38432 | 4905 ft | 274 kts | 278° |
| 2026-04-25 00:01 | 28.34636 | -81.40548 | 5888 ft | 273 kts | 280° |
| 2026-04-25 00:01 | 28.35002 | -81.42660 | 6831 ft | 274 kts | 279° |
| 2026-04-25 00:02 | 28.35352 | -81.44810 | 7695 ft | 278 kts | 279° |
| 2026-04-25 00:02 | 28.35693 | -81.46979 | 8629 ft | 281 kts | 279° |
| 2026-04-25 00:02 | 28.36030 | -81.49169 | 9596 ft | 282 kts | 279° |
| 2026-04-25 00:02 | 28.36376 | -81.51380 | 10499 ft | 288 kts | 280° |
| 2026-04-25 00:03 | 28.36739 | -81.53708 | 10809 ft | 314 kts | 280° |
| 2026-04-25 00:03 | 28.37127 | -81.56247 | 11058 ft | 339 kts | 280° |
| 2026-04-25 00:03 | 28.37536 | -81.58937 | 11617 ft | 350 kts | 280° |
| 2026-04-25 00:03 | 28.37953 | -81.61677 | 12467 ft | 353 kts | 280° |
| 2026-04-25 00:04 | 28.38374 | -81.64436 | 13303 ft | 356 kts | 281° |
| 2026-04-25 00:04 | 28.38801 | -81.67229 | 14123 ft | 360 kts | 281° |
| 2026-04-25 00:04 | 28.39233 | -81.70041 | 14945 ft | 364 kts | 281° |
| 2026-04-25 00:04 | 28.39669 | -81.72883 | 15758 ft | 367 kts | 281° |
| 2026-04-25 00:05 | 28.40109 | -81.75756 | 16556 ft | 371 kts | 281° |
| 2026-04-25 00:05 | 28.40553 | -81.78659 | 17329 ft | 374 kts | 281° |
| 2026-04-25 00:05 | 28.41000 | -81.81588 | 18060 ft | 378 kts | 281° |
| 2026-04-25 00:05 | 28.41451 | -81.84546 | 18767 ft | 382 kts | 281° |
| 2026-04-25 00:06 | 28.41905 | -81.87529 | 19449 ft | 385 kts | 281° |
| 2026-04-25 00:06 | 28.42364 | -81.90542 | 20116 ft | 389 kts | 281° |
| 2026-04-25 00:06 | 28.42614 | -81.92570 | 20530 ft | 392 kts | 276° |
| 2026-04-25 00:06 | 28.42733 | -81.96703 | 21348 ft | 398 kts | 272° |
| 2026-04-25 00:07 | 28.42757 | -81.98829 | 21745 ft | 400 kts | 272° |
| 2026-04-25 00:07 | 28.42795 | -82.03043 | 22473 ft | 405 kts | 272° |
| 2026-04-25 00:07 | 28.42818 | -82.05211 | 22857 ft | 407 kts | 272° |
| 2026-04-25 00:07 | 28.42870 | -82.09484 | 23568 ft | 411 kts | 272° |
| 2026-04-25 00:08 | 28.42901 | -82.11683 | 23904 ft | 413 kts | 272° |
| 2026-04-25 00:08 | 28.42948 | -82.14957 | 24395 ft | 416 kts | 272° |
| 2026-04-25 00:08 | 28.42997 | -82.18251 | 24868 ft | 419 kts | 272° |
| 2026-04-25 00:08 | 28.43045 | -82.21571 | 25351 ft | 421 kts | 272° |
| 2026-04-25 00:09 | 28.43093 | -82.24902 | 25843 ft | 423 kts | 272° |
| 2026-04-25 00:09 | 28.43140 | -82.28210 | 26297 ft | 426 kts | 272° |
| 2026-04-25 00:09 | 28.43188 | -82.31586 | 26736 ft | 428 kts | 272° |
| 2026-04-25 00:09 | 28.43235 | -82.34976 | 27150 ft | 431 kts | 272° |
| 2026-04-25 00:10 | 28.43281 | -82.38392 | 27550 ft | 433 kts | 272° |
| 2026-04-25 00:10 | 28.43521 | -82.41795 | 27916 ft | 434 kts | 284° |
| 2026-04-25 00:10 | 28.44613 | -82.44985 | 28298 ft | 434 kts | 300° |
| 2026-04-25 00:10 | 28.46407 | -82.47747 | 28693 ft | 437 kts | 312° |
| 2026-04-25 00:11 | 28.48720 | -82.49994 | 29051 ft | 441 kts | 326° |
| 2026-04-25 00:11 | 28.51481 | -82.51564 | 29399 ft | 446 kts | 334° |
| 2026-04-25 00:11 | 28.54357 | -82.52914 | 29731 ft | 449 kts | 336° |
| 2026-04-25 00:11 | 28.57270 | -82.54213 | 30149 ft | 449 kts | 336° |
| 2026-04-25 00:12 | 28.60174 | -82.55496 | 30650 ft | 447 kts | 336° |
| 2026-04-25 00:12 | 28.63060 | -82.56784 | 31187 ft | 443 kts | 336° |
| 2026-04-25 00:12 | 28.65917 | -82.58079 | 31692 ft | 441 kts | 335° |
| 2026-04-25 00:12 | 28.68752 | -82.59381 | 32130 ft | 440 kts | 335° |
| 2026-04-25 00:13 | 28.71585 | -82.60692 | 32552 ft | 438 kts | 335° |
| 2026-04-25 00:13 | 28.74401 | -82.62003 | 32978 ft | 437 kts | 335° |
| 2026-04-25 00:13 | 28.77212 | -82.63316 | 33374 ft | 436 kts | 335° |
| 2026-04-25 00:13 | 28.80013 | -82.64626 | 33723 ft | 435 kts | 335° |
| 2026-04-25 00:14 | 28.82813 | -82.65934 | 34089 ft | 434 kts | 335° |
| 2026-04-25 00:14 | 28.85605 | -82.67239 | 34445 ft | 433 kts | 335° |
| 2026-04-25 00:14 | 28.88390 | -82.68542 | 34747 ft | 433 kts | 335° |
| 2026-04-25 00:14 | 28.91178 | -82.69847 | 35042 ft | 433 kts | 335° |
| 2026-04-25 00:15 | 28.93963 | -82.71151 | 35361 ft | 432 kts | 335° |
| 2026-04-25 00:15 | 28.96746 | -82.72453 | 35673 ft | 431 kts | 335° |
| 2026-04-25 00:15 | 28.99526 | -82.73755 | 35944 ft | 431 kts | 335° |
| 2026-04-25 00:15 | 29.02263 | -82.75039 | 36217 ft | 431 kts | 335° |
| 2026-04-25 00:16 | 29.05032 | -82.76337 | 36482 ft | 431 kts | 335° |
| 2026-04-25 00:16 | 29.07805 | -82.77639 | 36724 ft | 431 kts | 335° |
| 2026-04-25 00:16 | 29.10565 | -82.78935 | 37100 ft | 427 kts | 334° |
| 2026-04-25 00:16 | 29.13299 | -82.80219 | 37527 ft | 422 kts | 334° |
| 2026-04-25 00:17 | 29.16035 | -82.81505 | 37900 ft | 418 kts | 334° |
| 2026-04-25 00:17 | 29.18701 | -82.82760 | 37959 ft | 422 kts | 334° |
| 2026-04-25 00:17 | 29.24151 | -82.85329 | 37971 ft | 423 kts | 334° |
| 2026-04-25 00:18 | 29.29575 | -82.87886 | 37966 ft | 420 kts | 334° |
| 2026-04-25 00:18 | 29.34963 | -82.90428 | 37952 ft | 417 kts | 334° |
| 2026-04-25 00:19 | 29.40313 | -82.92955 | 37959 ft | 415 kts | 334° |
| 2026-04-25 00:19 | 29.45646 | -82.95478 | 37972 ft | 414 kts | 334° |
| 2026-04-25 00:20 | 29.50987 | -82.98008 | 37955 ft | 416 kts | 334° |
| 2026-04-25 00:20 | 29.56321 | -83.00536 | 37964 ft | 418 kts | 334° |
| 2026-04-25 00:21 | 29.61720 | -83.03098 | 37955 ft | 421 kts | 334° |
| 2026-04-25 00:21 | 29.67145 | -83.05676 | 37962 ft | 423 kts | 334° |
| 2026-04-25 00:22 | 29.72605 | -83.08274 | 37955 ft | 425 kts | 335° |
| 2026-04-25 00:22 | 29.78081 | -83.10883 | 37950 ft | 426 kts | 335° |
| 2026-04-25 00:23 | 29.83558 | -83.13495 | 37951 ft | 427 kts | 335° |